sensor_id;sensor_type;location;lat;lon;timestamp;P1;durP1;ratioP1;P2;durP2;ratioP2
38513;SDS011;24282;48.400;10.808;2023-12-20T00:01:04;2.77;;;2.07;;
38513;SDS011;24282;48.400;10.808;2023-12-20T00:03:30;3.00;;;2.00;;
38513;SDS011;24282;48.400;10.808;2023-12-20T00:05:56;3.03;;;1.87;;
38513;SDS011;24282;48.400;10.808;2023-12-20T00:08:21;3.17;;;2.10;;
38513;SDS011;24282;48.400;10.808;2023-12-20T00:10:47;2.47;;;1.73;;
38513;SDS011;24282;48.400;10.808;2023-12-20T00:13:13;3.10;;;2.07;;
38513;SDS011;24282;48.400;10.808;2023-12-20T00:15:38;5.27;;;1.83;;
38513;SDS011;24282;48.400;10.808;2023-12-20T00:18:04;2.43;;;1.57;;
38513;SDS011;24282;48.400;10.808;2023-12-20T00:20:30;2.47;;;1.77;;
38513;SDS011;24282;48.400;10.808;2023-12-20T00:22:56;2.60;;;1.73;;
38513;SDS011;24282;48.400;10.808;2023-12-20T00:25:25;2.60;;;1.90;;
38513;SDS011;24282;48.400;10.808;2023-12-20T00:27:51;2.80;;;1.60;;
38513;SDS011;24282;48.400;10.808;2023-12-20T00:30:17;2.77;;;2.10;;
38513;SDS011;24282;48.400;10.808;2023-12-20T00:32:43;3.07;;;1.80;;
38513;SDS011;24282;48.400;10.808;2023-12-20T00:35:14;2.43;;;1.67;;
38513;SDS011;24282;48.400;10.808;2023-12-20T00:37:41;3.80;;;2.00;;
38513;SDS011;24282;48.400;10.808;2023-12-20T00:40:08;3.03;;;1.80;;
38513;SDS011;24282;48.400;10.808;2023-12-20T00:42:34;2.17;;;1.70;;
38513;SDS011;24282;48.400;10.808;2023-12-20T00:45:03;2.97;;;2.10;;
38513;SDS011;24282;48.400;10.808;2023-12-20T00:47:30;3.07;;;1.90;;
38513;SDS011;24282;48.400;10.808;2023-12-20T00:49:56;1.97;;;1.40;;
38513;SDS011;24282;48.400;10.808;2023-12-20T00:52:23;2.67;;;1.50;;
38513;SDS011;24282;48.400;10.808;2023-12-20T00:54:49;1.87;;;1.20;;
38513;SDS011;24282;48.400;10.808;2023-12-20T00:57:15;2.77;;;1.60;;
38513;SDS011;24282;48.400;10.808;2023-12-20T00:59:41;2.80;;;1.77;;
38513;SDS011;24282;48.400;10.808;2023-12-20T01:02:07;1.93;;;1.40;;
38513;SDS011;24282;48.400;10.808;2023-12-20T01:04:33;2.10;;;1.47;;
38513;SDS011;24282;48.400;10.808;2023-12-20T01:06:59;3.00;;;1.77;;
38513;SDS011;24282;48.400;10.808;2023-12-20T01:09:25;2.00;;;1.50;;
38513;SDS011;24282;48.400;10.808;2023-12-20T01:11:54;2.20;;;1.53;;
38513;SDS011;24282;48.400;10.808;2023-12-20T01:14:19;1.80;;;1.30;;
38513;SDS011;24282;48.400;10.808;2023-12-20T01:16:45;1.70;;;1.20;;
38513;SDS011;24282;48.400;10.808;2023-12-20T01:19:11;2.50;;;1.60;;
38513;SDS011;24282;48.400;10.808;2023-12-20T01:21:38;2.53;;;1.60;;
38513;SDS011;24282;48.400;10.808;2023-12-20T01:24:04;2.70;;;1.70;;
38513;SDS011;24282;48.400;10.808;2023-12-20T01:26:30;2.40;;;1.60;;
38513;SDS011;24282;48.400;10.808;2023-12-20T01:28:55;2.40;;;1.40;;
38513;SDS011;24282;48.400;10.808;2023-12-20T01:31:21;2.13;;;1.43;;
38513;SDS011;24282;48.400;10.808;2023-12-20T01:33:47;1.43;;;1.30;;
38513;SDS011;24282;48.400;10.808;2023-12-20T01:36:12;2.23;;;1.40;;
38513;SDS011;24282;48.400;10.808;2023-12-20T01:38:38;2.27;;;1.37;;
38513;SDS011;24282;48.400;10.808;2023-12-20T01:41:04;1.60;;;1.00;;
38513;SDS011;24282;48.400;10.808;2023-12-20T01:43:30;1.70;;;1.20;;
38513;SDS011;24282;48.400;10.808;2023-12-20T01:45:56;2.20;;;1.40;;
38513;SDS011;24282;48.400;10.808;2023-12-20T01:48:23;1.67;;;1.20;;
38513;SDS011;24282;48.400;10.808;2023-12-20T01:50:50;2.00;;;1.37;;
38513;SDS011;24282;48.400;10.808;2023-12-20T01:53:16;2.27;;;1.43;;
38513;SDS011;24282;48.400;10.808;2023-12-20T01:55:44;2.33;;;1.40;;
38513;SDS011;24282;48.400;10.808;2023-12-20T01:58:10;2.33;;;1.53;;
38513;SDS011;24282;48.400;10.808;2023-12-20T02:00:37;1.83;;;1.50;;
38513;SDS011;24282;48.400;10.808;2023-12-20T02:03:03;2.37;;;1.50;;
38513;SDS011;24282;48.400;10.808;2023-12-20T02:05:29;1.87;;;1.67;;
38513;SDS011;24282;48.400;10.808;2023-12-20T02:07:56;2.37;;;1.57;;
38513;SDS011;24282;48.400;10.808;2023-12-20T02:10:22;1.57;;;1.23;;
38513;SDS011;24282;48.400;10.808;2023-12-20T02:12:48;1.87;;;1.13;;
38513;SDS011;24282;48.400;10.808;2023-12-20T02:15:14;2.37;;;1.53;;
38513;SDS011;24282;48.400;10.808;2023-12-20T02:17:40;1.93;;;1.33;;
38513;SDS011;24282;48.400;10.808;2023-12-20T02:20:06;1.87;;;1.27;;
38513;SDS011;24282;48.400;10.808;2023-12-20T02:22:32;2.10;;;1.20;;
38513;SDS011;24282;48.400;10.808;2023-12-20T02:24:58;2.10;;;1.47;;
38513;SDS011;24282;48.400;10.808;2023-12-20T02:27:23;2.20;;;1.30;;
38513;SDS011;24282;48.400;10.808;2023-12-20T02:29:49;2.07;;;1.50;;
38513;SDS011;24282;48.400;10.808;2023-12-20T02:32:18;2.77;;;1.80;;
38513;SDS011;24282;48.400;10.808;2023-12-20T02:34:46;2.07;;;1.30;;
38513;SDS011;24282;48.400;10.808;2023-12-20T02:37:13;2.47;;;1.57;;
38513;SDS011;24282;48.400;10.808;2023-12-20T02:39:38;2.60;;;1.70;;
38513;SDS011;24282;48.400;10.808;2023-12-20T02:42:04;2.43;;;1.50;;
38513;SDS011;24282;48.400;10.808;2023-12-20T02:44:30;1.90;;;1.33;;
38513;SDS011;24282;48.400;10.808;2023-12-20T02:46:55;2.87;;;1.83;;
38513;SDS011;24282;48.400;10.808;2023-12-20T02:49:21;2.50;;;1.70;;
38513;SDS011;24282;48.400;10.808;2023-12-20T02:51:47;1.97;;;1.40;;
38513;SDS011;24282;48.400;10.808;2023-12-20T02:54:12;2.70;;;1.50;;
38513;SDS011;24282;48.400;10.808;2023-12-20T02:56:38;2.40;;;1.53;;
38513;SDS011;24282;48.400;10.808;2023-12-20T02:59:04;2.37;;;1.50;;
38513;SDS011;24282;48.400;10.808;2023-12-20T03:01:31;2.13;;;1.67;;
38513;SDS011;24282;48.400;10.808;2023-12-20T03:03:57;2.30;;;1.67;;
38513;SDS011;24282;48.400;10.808;2023-12-20T03:06:23;2.40;;;1.83;;
38513;SDS011;24282;48.400;10.808;2023-12-20T03:08:49;2.97;;;1.97;;
38513;SDS011;24282;48.400;10.808;2023-12-20T03:11:15;3.53;;;1.97;;
38513;SDS011;24282;48.400;10.808;2023-12-20T03:13:41;1.80;;;1.47;;
38513;SDS011;24282;48.400;10.808;2023-12-20T03:16:13;2.83;;;2.07;;
38513;SDS011;24282;48.400;10.808;2023-12-20T03:21:05;2.87;;;2.17;;
38513;SDS011;24282;48.400;10.808;2023-12-20T03:23:31;2.83;;;2.00;;
38513;SDS011;24282;48.400;10.808;2023-12-20T03:26:01;2.70;;;2.03;;
38513;SDS011;24282;48.400;10.808;2023-12-20T03:28:27;2.53;;;2.10;;
38513;SDS011;24282;48.400;10.808;2023-12-20T03:30:55;2.90;;;1.90;;
38513;SDS011;24282;48.400;10.808;2023-12-20T03:33:20;2.60;;;1.90;;
38513;SDS011;24282;48.400;10.808;2023-12-20T03:35:46;2.90;;;2.30;;
38513;SDS011;24282;48.400;10.808;2023-12-20T03:38:12;3.43;;;2.20;;
38513;SDS011;24282;48.400;10.808;2023-12-20T03:40:37;2.53;;;1.60;;
38513;SDS011;24282;48.400;10.808;2023-12-20T03:43:03;2.70;;;1.80;;
38513;SDS011;24282;48.400;10.808;2023-12-20T03:45:29;3.07;;;2.17;;
38513;SDS011;24282;48.400;10.808;2023-12-20T03:47:54;3.77;;;2.43;;
38513;SDS011;24282;48.400;10.808;2023-12-20T03:50:24;4.27;;;2.57;;
38513;SDS011;24282;48.400;10.808;2023-12-20T03:52:50;3.17;;;2.03;;
38513;SDS011;24282;48.400;10.808;2023-12-20T03:55:16;3.87;;;2.17;;
38513;SDS011;24282;48.400;10.808;2023-12-20T03:57:42;2.87;;;1.90;;
38513;SDS011;24282;48.400;10.808;2023-12-20T04:00:08;3.90;;;2.00;;
38513;SDS011;24282;48.400;10.808;2023-12-20T04:02:37;3.40;;;2.20;;
38513;SDS011;24282;48.400;10.808;2023-12-20T04:05:04;2.57;;;2.17;;
38513;SDS011;24282;48.400;10.808;2023-12-20T04:07:30;3.63;;;2.17;;
38513;SDS011;24282;48.400;10.808;2023-12-20T04:09:56;3.53;;;2.20;;
38513;SDS011;24282;48.400;10.808;2023-12-20T04:12:24;3.37;;;2.30;;
38513;SDS011;24282;48.400;10.808;2023-12-20T04:14:50;3.43;;;2.23;;
38513;SDS011;24282;48.400;10.808;2023-12-20T04:17:15;3.57;;;2.50;;
38513;SDS011;24282;48.400;10.808;2023-12-20T04:19:44;3.10;;;2.00;;
38513;SDS011;24282;48.400;10.808;2023-12-20T04:22:10;3.10;;;2.30;;
38513;SDS011;24282;48.400;10.808;2023-12-20T04:24:35;3.67;;;2.77;;
38513;SDS011;24282;48.400;10.808;2023-12-20T04:27:01;2.80;;;1.97;;
38513;SDS011;24282;48.400;10.808;2023-12-20T04:29:27;3.20;;;2.33;;
38513;SDS011;24282;48.400;10.808;2023-12-20T04:31:53;3.97;;;2.23;;
38513;SDS011;24282;48.400;10.808;2023-12-20T04:34:19;3.10;;;2.20;;
38513;SDS011;24282;48.400;10.808;2023-12-20T04:36:45;3.17;;;2.30;;
38513;SDS011;24282;48.400;10.808;2023-12-20T04:39:12;4.30;;;2.17;;
38513;SDS011;24282;48.400;10.808;2023-12-20T04:41:38;3.30;;;2.20;;
38513;SDS011;24282;48.400;10.808;2023-12-20T04:44:05;3.53;;;2.33;;
38513;SDS011;24282;48.400;10.808;2023-12-20T04:46:31;3.53;;;2.20;;
38513;SDS011;24282;48.400;10.808;2023-12-20T04:48:57;3.20;;;2.40;;
38513;SDS011;24282;48.400;10.808;2023-12-20T04:51:23;2.67;;;2.23;;
38513;SDS011;24282;48.400;10.808;2023-12-20T04:53:49;3.57;;;2.80;;
38513;SDS011;24282;48.400;10.808;2023-12-20T04:56:14;3.10;;;2.40;;
38513;SDS011;24282;48.400;10.808;2023-12-20T04:58:41;3.07;;;2.40;;
38513;SDS011;24282;48.400;10.808;2023-12-20T05:01:08;3.33;;;2.60;;
38513;SDS011;24282;48.400;10.808;2023-12-20T05:03:34;3.97;;;2.70;;
38513;SDS011;24282;48.400;10.808;2023-12-20T05:06:00;3.57;;;2.60;;
38513;SDS011;24282;48.400;10.808;2023-12-20T05:08:26;3.87;;;2.73;;
38513;SDS011;24282;48.400;10.808;2023-12-20T05:10:55;3.00;;;2.03;;
38513;SDS011;24282;48.400;10.808;2023-12-20T05:13:21;2.60;;;2.30;;
38513;SDS011;24282;48.400;10.808;2023-12-20T05:15:47;3.23;;;2.23;;
38513;SDS011;24282;48.400;10.808;2023-12-20T05:18:13;2.73;;;1.73;;
38513;SDS011;24282;48.400;10.808;2023-12-20T05:20:39;3.50;;;2.43;;
38513;SDS011;24282;48.400;10.808;2023-12-20T05:23:05;3.07;;;2.07;;
38513;SDS011;24282;48.400;10.808;2023-12-20T05:25:31;2.23;;;1.90;;
38513;SDS011;24282;48.400;10.808;2023-12-20T05:27:57;6.47;;;2.03;;
38513;SDS011;24282;48.400;10.808;2023-12-20T05:30:23;2.50;;;2.00;;
38513;SDS011;24282;48.400;10.808;2023-12-20T05:32:49;3.17;;;2.30;;
38513;SDS011;24282;48.400;10.808;2023-12-20T05:35:15;2.50;;;1.93;;
38513;SDS011;24282;48.400;10.808;2023-12-20T05:37:41;2.77;;;2.00;;
38513;SDS011;24282;48.400;10.808;2023-12-20T05:40:07;2.83;;;1.90;;
38513;SDS011;24282;48.400;10.808;2023-12-20T05:42:36;2.10;;;1.70;;
38513;SDS011;24282;48.400;10.808;2023-12-20T05:45:03;2.27;;;1.63;;
38513;SDS011;24282;48.400;10.808;2023-12-20T05:47:29;2.03;;;1.63;;
38513;SDS011;24282;48.400;10.808;2023-12-20T05:49:55;2.30;;;1.43;;
38513;SDS011;24282;48.400;10.808;2023-12-20T05:52:20;2.83;;;2.10;;
38513;SDS011;24282;48.400;10.808;2023-12-20T05:54:46;3.90;;;1.80;;
38513;SDS011;24282;48.400;10.808;2023-12-20T05:57:12;3.33;;;2.37;;
38513;SDS011;24282;48.400;10.808;2023-12-20T05:59:38;2.60;;;1.87;;
38513;SDS011;24282;48.400;10.808;2023-12-20T06:02:04;3.00;;;2.20;;
38513;SDS011;24282;48.400;10.808;2023-12-20T06:04:30;3.60;;;2.40;;
38513;SDS011;24282;48.400;10.808;2023-12-20T06:06:55;2.23;;;1.70;;
38513;SDS011;24282;48.400;10.808;2023-12-20T06:09:21;2.53;;;2.10;;
38513;SDS011;24282;48.400;10.808;2023-12-20T06:11:47;2.83;;;2.07;;
38513;SDS011;24282;48.400;10.808;2023-12-20T06:14:16;2.50;;;2.10;;
38513;SDS011;24282;48.400;10.808;2023-12-20T06:16:41;2.90;;;2.30;;
38513;SDS011;24282;48.400;10.808;2023-12-20T06:19:08;3.60;;;2.40;;
38513;SDS011;24282;48.400;10.808;2023-12-20T06:21:33;3.60;;;2.60;;
38513;SDS011;24282;48.400;10.808;2023-12-20T06:23:59;2.97;;;2.50;;
38513;SDS011;24282;48.400;10.808;2023-12-20T06:26:25;5.10;;;3.03;;
38513;SDS011;24282;48.400;10.808;2023-12-20T06:28:51;4.67;;;2.90;;
38513;SDS011;24282;48.400;10.808;2023-12-20T06:31:16;4.10;;;2.90;;
38513;SDS011;24282;48.400;10.808;2023-12-20T06:33:43;3.73;;;3.10;;
38513;SDS011;24282;48.400;10.808;2023-12-20T06:36:12;3.50;;;2.70;;
38513;SDS011;24282;48.400;10.808;2023-12-20T06:38:38;4.37;;;3.30;;
38513;SDS011;24282;48.400;10.808;2023-12-20T06:41:04;3.90;;;2.93;;
38513;SDS011;24282;48.400;10.808;2023-12-20T06:43:31;4.60;;;3.30;;
38513;SDS011;24282;48.400;10.808;2023-12-20T06:45:57;4.20;;;3.40;;
38513;SDS011;24282;48.400;10.808;2023-12-20T06:48:23;4.53;;;3.80;;
38513;SDS011;24282;48.400;10.808;2023-12-20T06:50:49;4.87;;;4.10;;
38513;SDS011;24282;48.400;10.808;2023-12-20T06:53:14;4.80;;;3.80;;
38513;SDS011;24282;48.400;10.808;2023-12-20T06:55:40;5.20;;;3.93;;
38513;SDS011;24282;48.400;10.808;2023-12-20T06:58:06;6.57;;;4.90;;
38513;SDS011;24282;48.400;10.808;2023-12-20T07:00:32;6.00;;;4.77;;
38513;SDS011;24282;48.400;10.808;2023-12-20T07:02:57;7.57;;;5.20;;
38513;SDS011;24282;48.400;10.808;2023-12-20T07:05:23;6.60;;;4.93;;
38513;SDS011;24282;48.400;10.808;2023-12-20T07:07:49;5.73;;;4.90;;
38513;SDS011;24282;48.400;10.808;2023-12-20T07:10:15;6.03;;;5.37;;
38513;SDS011;24282;48.400;10.808;2023-12-20T07:12:41;6.03;;;5.13;;
38513;SDS011;24282;48.400;10.808;2023-12-20T07:15:06;5.90;;;5.13;;
38513;SDS011;24282;48.400;10.808;2023-12-20T07:17:33;7.23;;;5.90;;
38513;SDS011;24282;48.400;10.808;2023-12-20T07:19:59;6.30;;;5.37;;
38513;SDS011;24282;48.400;10.808;2023-12-20T07:22:29;8.23;;;5.80;;
38513;SDS011;24282;48.400;10.808;2023-12-20T07:24:57;6.53;;;5.50;;
38513;SDS011;24282;48.400;10.808;2023-12-20T07:27:23;7.33;;;5.97;;
38513;SDS011;24282;48.400;10.808;2023-12-20T07:29:49;7.27;;;6.03;;
38513;SDS011;24282;48.400;10.808;2023-12-20T07:32:14;7.37;;;6.10;;
38513;SDS011;24282;48.400;10.808;2023-12-20T07:34:40;7.03;;;5.57;;
38513;SDS011;24282;48.400;10.808;2023-12-20T07:37:06;6.90;;;5.63;;
38513;SDS011;24282;48.400;10.808;2023-12-20T07:39:32;6.63;;;5.30;;
38513;SDS011;24282;48.400;10.808;2023-12-20T07:41:57;6.13;;;5.13;;
38513;SDS011;24282;48.400;10.808;2023-12-20T07:44:23;7.53;;;6.40;;
38513;SDS011;24282;48.400;10.808;2023-12-20T07:46:48;8.57;;;6.77;;
38513;SDS011;24282;48.400;10.808;2023-12-20T07:49:15;7.30;;;5.80;;
38513;SDS011;24282;48.400;10.808;2023-12-20T07:51:40;6.60;;;5.87;;
38513;SDS011;24282;48.400;10.808;2023-12-20T07:54:06;8.27;;;6.27;;
38513;SDS011;24282;48.400;10.808;2023-12-20T07:56:33;6.67;;;5.23;;
38513;SDS011;24282;48.400;10.808;2023-12-20T07:58:58;6.23;;;4.93;;
38513;SDS011;24282;48.400;10.808;2023-12-20T08:01:24;6.90;;;5.83;;
38513;SDS011;24282;48.400;10.808;2023-12-20T08:03:50;6.57;;;5.70;;
38513;SDS011;24282;48.400;10.808;2023-12-20T08:06:16;7.13;;;4.87;;
38513;SDS011;24282;48.400;10.808;2023-12-20T08:08:42;4.97;;;4.47;;
38513;SDS011;24282;48.400;10.808;2023-12-20T08:11:08;6.33;;;5.50;;
38513;SDS011;24282;48.400;10.808;2023-12-20T08:13:34;6.07;;;5.20;;
38513;SDS011;24282;48.400;10.808;2023-12-20T08:15:59;6.63;;;5.70;;
38513;SDS011;24282;48.400;10.808;2023-12-20T08:18:27;5.80;;;4.87;;
38513;SDS011;24282;48.400;10.808;2023-12-20T08:20:53;6.13;;;4.77;;
38513;SDS011;24282;48.400;10.808;2023-12-20T08:23:19;6.40;;;5.40;;
38513;SDS011;24282;48.400;10.808;2023-12-20T08:25:48;5.63;;;5.00;;
38513;SDS011;24282;48.400;10.808;2023-12-20T08:28:14;7.67;;;5.97;;
38513;SDS011;24282;48.400;10.808;2023-12-20T08:30:40;6.07;;;5.00;;
38513;SDS011;24282;48.400;10.808;2023-12-20T08:33:06;5.83;;;4.87;;
38513;SDS011;24282;48.400;10.808;2023-12-20T08:35:36;5.77;;;4.83;;
38513;SDS011;24282;48.400;10.808;2023-12-20T08:38:02;6.70;;;4.93;;
38513;SDS011;24282;48.400;10.808;2023-12-20T08:40:29;6.47;;;5.30;;
38513;SDS011;24282;48.400;10.808;2023-12-20T08:42:55;6.40;;;5.00;;
38513;SDS011;24282;48.400;10.808;2023-12-20T08:45:20;8.83;;;5.70;;
38513;SDS011;24282;48.400;10.808;2023-12-20T08:47:46;6.40;;;4.40;;
38513;SDS011;24282;48.400;10.808;2023-12-20T08:50:12;5.50;;;4.87;;
38513;SDS011;24282;48.400;10.808;2023-12-20T08:52:37;16.13;;;9.43;;
38513;SDS011;24282;48.400;10.808;2023-12-20T08:55:03;7.63;;;5.70;;
38513;SDS011;24282;48.400;10.808;2023-12-20T08:57:29;6.03;;;4.17;;
38513;SDS011;24282;48.400;10.808;2023-12-20T08:59:57;4.87;;;3.93;;
38513;SDS011;24282;48.400;10.808;2023-12-20T09:02:22;5.20;;;3.93;;
38513;SDS011;24282;48.400;10.808;2023-12-20T09:04:48;5.30;;;4.37;;
38513;SDS011;24282;48.400;10.808;2023-12-20T09:07:23;5.17;;;3.97;;
38513;SDS011;24282;48.400;10.808;2023-12-20T09:09:52;6.23;;;4.00;;
38513;SDS011;24282;48.400;10.808;2023-12-20T09:12:18;4.80;;;3.70;;
38513;SDS011;24282;48.400;10.808;2023-12-20T09:14:44;4.87;;;3.80;;
38513;SDS011;24282;48.400;10.808;2023-12-20T09:17:11;4.23;;;3.30;;
38513;SDS011;24282;48.400;10.808;2023-12-20T09:19:37;4.27;;;3.40;;
38513;SDS011;24282;48.400;10.808;2023-12-20T09:22:04;5.93;;;3.47;;
38513;SDS011;24282;48.400;10.808;2023-12-20T09:24:30;4.47;;;3.60;;
38513;SDS011;24282;48.400;10.808;2023-12-20T09:26:56;3.57;;;2.63;;
38513;SDS011;24282;48.400;10.808;2023-12-20T09:29:22;5.80;;;3.77;;
38513;SDS011;24282;48.400;10.808;2023-12-20T09:31:50;5.53;;;3.30;;
38513;SDS011;24282;48.400;10.808;2023-12-20T09:34:16;5.77;;;3.57;;
38513;SDS011;24282;48.400;10.808;2023-12-20T09:36:44;5.90;;;4.17;;
38513;SDS011;24282;48.400;10.808;2023-12-20T09:39:16;7.50;;;4.97;;
38513;SDS011;24282;48.400;10.808;2023-12-20T09:42:07;8.13;;;4.77;;
38513;SDS011;24282;48.400;10.808;2023-12-20T09:44:33;6.07;;;4.40;;
38513;SDS011;24282;48.400;10.808;2023-12-20T09:47:02;7.23;;;3.87;;
38513;SDS011;24282;48.400;10.808;2023-12-20T09:49:29;9.63;;;5.03;;
38513;SDS011;24282;48.400;10.808;2023-12-20T09:51:56;6.60;;;3.40;;
38513;SDS011;24282;48.400;10.808;2023-12-20T09:54:22;4.20;;;3.17;;
38513;SDS011;24282;48.400;10.808;2023-12-20T09:56:49;7.80;;;4.77;;
38513;SDS011;24282;48.400;10.808;2023-12-20T09:59:15;6.83;;;4.47;;
38513;SDS011;24282;48.400;10.808;2023-12-20T10:01:41;6.07;;;4.00;;
38513;SDS011;24282;48.400;10.808;2023-12-20T10:04:09;7.90;;;4.80;;
38513;SDS011;24282;48.400;10.808;2023-12-20T10:06:43;6.67;;;3.20;;
38513;SDS011;24282;48.400;10.808;2023-12-20T10:09:10;4.50;;;3.47;;
38513;SDS011;24282;48.400;10.808;2023-12-20T10:11:38;6.40;;;3.53;;
38513;SDS011;24282;48.400;10.808;2023-12-20T10:14:04;5.10;;;4.00;;
38513;SDS011;24282;48.400;10.808;2023-12-20T10:16:32;4.67;;;3.23;;
38513;SDS011;24282;48.400;10.808;2023-12-20T10:18:59;4.13;;;2.90;;
38513;SDS011;24282;48.400;10.808;2023-12-20T10:21:26;3.70;;;2.53;;
38513;SDS011;24282;48.400;10.808;2023-12-20T10:23:53;3.93;;;2.67;;
38513;SDS011;24282;48.400;10.808;2023-12-20T10:26:22;4.20;;;2.40;;
38513;SDS011;24282;48.400;10.808;2023-12-20T10:28:56;3.20;;;2.27;;
38513;SDS011;24282;48.400;10.808;2023-12-20T10:31:31;4.07;;;2.70;;
38513;SDS011;24282;48.400;10.808;2023-12-20T10:33:59;3.30;;;2.57;;
38513;SDS011;24282;48.400;10.808;2023-12-20T10:36:27;3.10;;;2.40;;
38513;SDS011;24282;48.400;10.808;2023-12-20T10:38:57;3.13;;;2.37;;
38513;SDS011;24282;48.400;10.808;2023-12-20T10:41:30;4.07;;;2.60;;
38513;SDS011;24282;48.400;10.808;2023-12-20T10:44:00;3.53;;;2.40;;
38513;SDS011;24282;48.400;10.808;2023-12-20T10:46:27;3.90;;;2.70;;
38513;SDS011;24282;48.400;10.808;2023-12-20T10:48:55;3.33;;;2.60;;
38513;SDS011;24282;48.400;10.808;2023-12-20T10:51:21;3.80;;;2.23;;
38513;SDS011;24282;48.400;10.808;2023-12-20T10:53:49;1.97;;;1.60;;
38513;SDS011;24282;48.400;10.808;2023-12-20T10:56:16;2.63;;;1.80;;
38513;SDS011;24282;48.400;10.808;2023-12-20T10:58:43;2.40;;;1.80;;
38513;SDS011;24282;48.400;10.808;2023-12-20T11:01:12;2.77;;;1.70;;
38513;SDS011;24282;48.400;10.808;2023-12-20T11:03:43;2.87;;;1.70;;
38513;SDS011;24282;48.400;10.808;2023-12-20T11:06:18;2.20;;;1.33;;
38513;SDS011;24282;48.400;10.808;2023-12-20T11:11:25;2.93;;;1.53;;
38513;SDS011;24282;48.400;10.808;2023-12-20T11:14:12;3.77;;;1.77;;
38513;SDS011;24282;48.400;10.808;2023-12-20T11:16:45;2.60;;;1.90;;
38513;SDS011;24282;48.400;10.808;2023-12-20T11:19:11;2.47;;;1.63;;
38513;SDS011;24282;48.400;10.808;2023-12-20T11:21:39;2.00;;;1.40;;
38513;SDS011;24282;48.400;10.808;2023-12-20T11:24:06;2.57;;;1.83;;
38513;SDS011;24282;48.400;10.808;2023-12-20T11:26:31;2.93;;;2.07;;
38513;SDS011;24282;48.400;10.808;2023-12-20T11:29:43;3.73;;;1.70;;
38513;SDS011;24282;48.400;10.808;2023-12-20T11:32:03;2.37;;;1.43;;
38513;SDS011;24282;48.400;10.808;2023-12-20T11:34:50;2.93;;;1.60;;
38513;SDS011;24282;48.400;10.808;2023-12-20T11:37:20;1.73;;;1.47;;
38513;SDS011;24282;48.400;10.808;2023-12-20T11:39:56;3.27;;;1.73;;
38513;SDS011;24282;48.400;10.808;2023-12-20T11:42:27;1.70;;;1.40;;
38513;SDS011;24282;48.400;10.808;2023-12-20T11:44:53;2.37;;;1.57;;
38513;SDS011;24282;48.400;10.808;2023-12-20T11:47:18;1.83;;;1.20;;
38513;SDS011;24282;48.400;10.808;2023-12-20T11:49:48;2.50;;;1.37;;
38513;SDS011;24282;48.400;10.808;2023-12-20T11:52:14;2.50;;;1.47;;
38513;SDS011;24282;48.400;10.808;2023-12-20T11:54:39;3.53;;;1.27;;
38513;SDS011;24282;48.400;10.808;2023-12-20T11:57:05;2.43;;;1.40;;
38513;SDS011;24282;48.400;10.808;2023-12-20T11:59:31;1.47;;;1.27;;
38513;SDS011;24282;48.400;10.808;2023-12-20T12:01:58;2.77;;;1.50;;
38513;SDS011;24282;48.400;10.808;2023-12-20T12:04:26;2.83;;;1.60;;
38513;SDS011;24282;48.400;10.808;2023-12-20T12:06:53;3.43;;;1.50;;
38513;SDS011;24282;48.400;10.808;2023-12-20T12:09:19;5.67;;;1.50;;
38513;SDS011;24282;48.400;10.808;2023-12-20T12:11:44;3.07;;;1.50;;
38513;SDS011;24282;48.400;10.808;2023-12-20T12:14:10;3.00;;;1.60;;
38513;SDS011;24282;48.400;10.808;2023-12-20T12:16:36;4.23;;;1.50;;
38513;SDS011;24282;48.400;10.808;2023-12-20T12:19:02;3.53;;;1.30;;
38513;SDS011;24282;48.400;10.808;2023-12-20T12:21:29;5.40;;;2.10;;
38513;SDS011;24282;48.400;10.808;2023-12-20T12:24:06;3.87;;;1.90;;
38513;SDS011;24282;48.400;10.808;2023-12-20T12:26:33;4.90;;;1.77;;
38513;SDS011;24282;48.400;10.808;2023-12-20T12:28:58;2.93;;;1.23;;
38513;SDS011;24282;48.400;10.808;2023-12-20T12:31:24;2.50;;;1.57;;
38513;SDS011;24282;48.400;10.808;2023-12-20T12:33:51;3.37;;;1.93;;
38513;SDS011;24282;48.400;10.808;2023-12-20T12:36:17;3.73;;;1.53;;
38513;SDS011;24282;48.400;10.808;2023-12-20T12:38:43;4.27;;;1.60;;
38513;SDS011;24282;48.400;10.808;2023-12-20T12:41:09;5.00;;;1.50;;
38513;SDS011;24282;48.400;10.808;2023-12-20T12:43:37;5.13;;;1.50;;
38513;SDS011;24282;48.400;10.808;2023-12-20T12:46:03;3.47;;;1.60;;
38513;SDS011;24282;48.400;10.808;2023-12-20T12:48:29;5.47;;;1.53;;
38513;SDS011;24282;48.400;10.808;2023-12-20T12:50:55;5.77;;;1.70;;
38513;SDS011;24282;48.400;10.808;2023-12-20T12:53:24;4.83;;;1.63;;
38513;SDS011;24282;48.400;10.808;2023-12-20T12:55:51;2.37;;;1.40;;
38513;SDS011;24282;48.400;10.808;2023-12-20T12:58:18;4.90;;;1.67;;
38513;SDS011;24282;48.400;10.808;2023-12-20T13:00:43;8.80;;;1.50;;
38513;SDS011;24282;48.400;10.808;2023-12-20T13:03:09;6.10;;;1.50;;
38513;SDS011;24282;48.400;10.808;2023-12-20T13:05:35;3.73;;;1.30;;
38513;SDS011;24282;48.400;10.808;2023-12-20T13:08:00;3.50;;;1.23;;
38513;SDS011;24282;48.400;10.808;2023-12-20T13:10:26;1.90;;;1.17;;
38513;SDS011;24282;48.400;10.808;2023-12-20T13:12:52;3.47;;;1.40;;
38513;SDS011;24282;48.400;10.808;2023-12-20T13:15:18;3.37;;;1.40;;
38513;SDS011;24282;48.400;10.808;2023-12-20T13:17:43;3.03;;;1.50;;
38513;SDS011;24282;48.400;10.808;2023-12-20T13:20:11;5.90;;;1.37;;
38513;SDS011;24282;48.400;10.808;2023-12-20T13:22:37;3.90;;;1.23;;
38513;SDS011;24282;48.400;10.808;2023-12-20T13:25:03;3.33;;;1.37;;
38513;SDS011;24282;48.400;10.808;2023-12-20T13:27:29;2.53;;;1.20;;
38513;SDS011;24282;48.400;10.808;2023-12-20T13:29:54;3.27;;;1.60;;
38513;SDS011;24282;48.400;10.808;2023-12-20T13:32:20;2.40;;;1.10;;
38513;SDS011;24282;48.400;10.808;2023-12-20T13:34:46;3.97;;;1.53;;
38513;SDS011;24282;48.400;10.808;2023-12-20T13:37:12;5.40;;;1.37;;
38513;SDS011;24282;48.400;10.808;2023-12-20T13:39:39;3.47;;;1.93;;
38513;SDS011;24282;48.400;10.808;2023-12-20T13:42:05;3.20;;;1.80;;
38513;SDS011;24282;48.400;10.808;2023-12-20T13:44:30;5.23;;;1.87;;
38513;SDS011;24282;48.400;10.808;2023-12-20T13:46:56;3.63;;;1.23;;
38513;SDS011;24282;48.400;10.808;2023-12-20T13:49:29;3.10;;;1.67;;
38513;SDS011;24282;48.400;10.808;2023-12-20T13:51:54;2.63;;;1.27;;
38513;SDS011;24282;48.400;10.808;2023-12-20T13:54:20;3.40;;;1.40;;
38513;SDS011;24282;48.400;10.808;2023-12-20T13:56:47;2.53;;;1.20;;
38513;SDS011;24282;48.400;10.808;2023-12-20T13:59:16;4.40;;;1.03;;
38513;SDS011;24282;48.400;10.808;2023-12-20T14:01:41;2.17;;;1.20;;
38513;SDS011;24282;48.400;10.808;2023-12-20T14:04:07;2.37;;;1.00;;
38513;SDS011;24282;48.400;10.808;2023-12-20T14:06:33;3.00;;;0.97;;
38513;SDS011;24282;48.400;10.808;2023-12-20T14:08:58;4.03;;;1.10;;
38513;SDS011;24282;48.400;10.808;2023-12-20T14:11:30;3.03;;;1.00;;
38513;SDS011;24282;48.400;10.808;2023-12-20T14:13:56;3.90;;;0.87;;
38513;SDS011;24282;48.400;10.808;2023-12-20T14:16:25;3.87;;;1.10;;
38513;SDS011;24282;48.400;10.808;2023-12-20T14:18:51;2.40;;;1.10;;
38513;SDS011;24282;48.400;10.808;2023-12-20T14:21:17;2.70;;;1.20;;
38513;SDS011;24282;48.400;10.808;2023-12-20T14:23:45;3.17;;;1.30;;
38513;SDS011;24282;48.400;10.808;2023-12-20T14:26:11;5.87;;;2.10;;
38513;SDS011;24282;48.400;10.808;2023-12-20T14:28:40;6.50;;;2.63;;
38513;SDS011;24282;48.400;10.808;2023-12-20T14:31:07;4.57;;;1.80;;
38513;SDS011;24282;48.400;10.808;2023-12-20T14:33:33;4.23;;;1.40;;
38513;SDS011;24282;48.400;10.808;2023-12-20T14:35:59;1.93;;;1.13;;